createdAt,value
2018-01-06T00:00:04.876Z,99.90
2018-01-06T00:17:42.372Z,1.00
2018-01-06T00:20:20.516Z,1.00
2018-01-06T00:30:49.913Z,1.00
2018-01-06T00:33:18.820Z,1.00
2018-01-06T00:35:48.084Z,1.00
2018-01-06T00:38:26.972Z,1.00
2018-01-06T00:52:50.033Z,1.00
2018-01-06T00:55:21.372Z,1.00
2018-01-06T00:57:53.209Z,1.00
2018-01-06T01:03:10.396Z,1.00
2018-01-06T01:13:49.228Z,1.00
2018-01-06T01:16:18.016Z,1.00
2018-01-06T01:21:32.116Z,1.00
2018-01-06T01:27:21.612Z,1.00
2018-01-06T01:29:52.056Z,1.00
2018-01-06T01:35:06.943Z,1.00
2018-01-06T01:38:00.428Z,1.00
2018-01-06T01:40:36.592Z,1.00
2018-01-06T01:43:05.820Z,1.00
2018-01-06T01:46:05.684Z,1.00
2018-01-06T01:48:41.240Z,1.00
2018-01-06T01:51:23.648Z,1.00
2018-01-06T01:59:42.236Z,1.00
2018-01-06T02:20:39.080Z,99.90
2018-01-06T02:26:14.303Z,95.30
2018-01-06T02:31:25.013Z,74.90
2018-01-06T02:33:54.528Z,66.10
2018-01-06T02:36:22.543Z,36.30
2018-01-06T02:38:50.963Z,82.80
2018-01-06T02:41:19.892Z,99.90
2018-01-06T02:43:49.925Z,99.90
2018-01-06T02:46:31.052Z,99.90
2018-01-06T02:49:00.036Z,99.90
2018-01-06T02:51:30.339Z,99.90
2018-01-06T02:54:00.252Z,99.90
2018-01-06T02:56:32.096Z,99.90
2018-01-06T02:59:04.751Z,99.90
2018-01-06T03:01:32.847Z,99.90
2018-01-06T03:04:11.337Z,99.90
2018-01-06T03:06:41.376Z,99.90
2018-01-06T03:09:09.496Z,99.90
2018-01-06T03:11:37.527Z,99.90
2018-01-06T03:14:06.672Z,99.90
2018-01-06T03:16:34.819Z,99.90
2018-01-06T03:19:07.375Z,99.90
2018-01-06T03:21:37.376Z,99.90
2018-01-06T03:24:10.331Z,99.90
2018-01-06T03:26:39.315Z,99.90
2018-01-06T03:29:07.371Z,99.90
2018-01-06T03:31:42.647Z,99.90
2018-01-06T03:34:15.371Z,1.00
2018-01-06T03:36:43.411Z,1.00
2018-01-06T03:39:17.195Z,99.90
2018-01-06T03:41:46.195Z,99.90
2018-01-06T03:44:28.639Z,99.90
2018-01-06T03:46:57.679Z,99.90
2018-01-06T03:49:27.919Z,1.00
2018-01-06T03:52:00.755Z,1.00
2018-01-06T03:54:32.839Z,1.00
2018-01-06T03:57:03.048Z,1.00
2018-01-06T03:59:31.077Z,1.00
2018-01-06T04:02:01.103Z,1.00
2018-01-06T04:04:30.071Z,1.00
2018-01-06T04:06:58.139Z,1.00
2018-01-06T04:09:30.136Z,1.00
2018-01-06T04:11:58.624Z,1.00
2018-01-06T04:14:27.539Z,1.00
2018-01-06T04:16:59.491Z,1.00
2018-01-06T04:19:28.207Z,1.00
2018-01-06T04:27:07.871Z,1.00
2018-01-06T04:29:36.927Z,99.90
2018-01-06T04:32:05.339Z,99.90
2018-01-06T05:13:20.682Z,99.90
2018-01-06T05:21:00.967Z,99.90
2018-01-06T05:36:18.386Z,18.00
2018-01-06T05:38:49.454Z,99.90
2018-01-06T05:41:18.682Z,99.90
2018-01-06T05:43:47.839Z,99.90
2018-01-06T05:48:53.226Z,99.90
2018-01-06T05:51:24.671Z,99.90
2018-01-06T05:53:56.690Z,99.90
2018-01-06T05:56:25.583Z,99.90
2018-01-06T05:58:55.982Z,99.90
2018-01-06T06:01:24.487Z,99.90
2018-01-06T06:06:36.475Z,99.90
2018-01-06T06:09:13.166Z,99.90
2018-01-06T06:11:47.063Z,1.00
2018-01-06T06:14:15.511Z,1.00
2018-01-06T06:16:55.886Z,1.00
2018-01-06T06:19:26.727Z,1.00
2018-01-06T06:24:37.847Z,1.00
2018-01-06T06:27:24.654Z,1.00
2018-01-06T06:29:56.307Z,1.00
2018-01-06T06:32:26.502Z,1.00
2018-01-06T06:34:57.866Z,1.00
2018-01-06T06:37:28.706Z,1.00
2018-01-06T06:40:00.675Z,1.00
2018-01-06T06:42:32.190Z,1.00
2018-01-06T07:00:35.354Z,1.00
2018-01-06T07:03:05.591Z,1.00
2018-01-06T07:05:34.640Z,1.00
2018-01-06T07:08:03.406Z,1.00
2018-01-06T07:10:32.386Z,1.00
2018-01-06T07:13:02.310Z,1.00
2018-01-06T07:15:32.306Z,1.00
2018-01-06T07:18:02.330Z,1.00
2018-01-06T07:20:31.726Z,1.00
2018-01-06T07:23:02.078Z,1.00
2018-01-06T07:25:30.866Z,1.00
2018-01-06T07:28:00.866Z,1.00
2018-01-06T07:30:28.942Z,1.00
2018-01-06T07:32:57.918Z,1.00
2018-01-06T07:35:31.994Z,1.00
2018-01-06T07:38:12.699Z,1.00
2018-01-06T07:40:40.713Z,1.00
2018-01-06T07:43:16.682Z,1.00
2018-01-06T07:45:44.710Z,1.00
2018-01-06T07:48:17.162Z,1.00
2018-01-06T07:50:45.434Z,1.00
2018-01-06T07:53:13.454Z,1.00
2018-01-06T07:55:47.299Z,1.00
2018-01-06T07:58:15.314Z,99.90
2018-01-06T08:03:39.682Z,1.00
2018-01-06T08:06:07.722Z,1.00
2018-01-06T08:08:37.678Z,1.00
2018-01-06T08:11:06.582Z,1.00
2018-01-06T08:13:39.331Z,1.00
2018-01-06T08:16:07.342Z,1.00
2018-01-06T08:18:40.043Z,1.00
2018-01-06T08:21:14.678Z,1.00
2018-01-06T08:23:44.618Z,1.00
2018-01-06T08:26:13.622Z,99.90
2018-01-06T08:28:41.650Z,99.90
2018-01-06T08:31:22.158Z,99.90
2018-01-06T08:33:51.161Z,63.00
2018-01-06T08:36:20.086Z,1.00
2018-01-06T08:38:48.102Z,1.00
2018-01-06T08:41:16.126Z,1.00
2018-01-06T08:43:44.142Z,1.00
2018-01-06T08:46:12.179Z,1.00
2018-01-06T08:48:40.198Z,99.90
2018-01-06T08:51:10.918Z,99.90
2018-01-06T08:56:32.558Z,99.90
2018-01-06T08:59:00.581Z,22.70
2018-01-06T09:01:29.522Z,99.90
2018-01-06T09:04:02.658Z,99.90
2018-01-06T09:06:31.594Z,99.90
2018-01-06T09:09:05.374Z,1.00
2018-01-06T09:11:39.962Z,1.00
2018-01-06T09:14:08.802Z,1.00
2018-01-06T09:16:42.210Z,1.00
2018-01-06T09:19:10.266Z,1.00
2018-01-06T09:21:43.882Z,1.00
2018-01-06T09:24:16.750Z,1.00
2018-01-06T09:26:44.766Z,1.00
2018-01-06T09:29:13.549Z,1.00
2018-01-06T09:31:42.346Z,1.00
2018-01-06T09:34:11.303Z,1.00
2018-01-06T09:36:43.765Z,99.90
2018-01-06T09:39:11.805Z,99.90
2018-01-06T09:41:39.842Z,99.90
2018-01-06T09:44:11.477Z,99.90
2018-01-06T09:46:40.470Z,99.90
2018-01-06T09:49:14.169Z,99.90
2018-01-06T09:51:42.218Z,99.90
2018-01-06T09:54:17.342Z,99.90
2018-01-06T09:56:57.802Z,1.00
2018-01-06T09:59:38.618Z,1.00
2018-01-06T10:02:10.866Z,1.00
2018-01-06T10:04:39.857Z,1.00
2018-01-06T10:07:12.518Z,1.00
2018-01-06T10:09:45.462Z,1.00
2018-01-06T10:12:13.498Z,1.00
2018-01-06T10:14:44.465Z,1.00
2018-01-06T10:17:13.402Z,1.00
2018-01-06T10:19:41.421Z,1.00
2018-01-06T10:22:10.369Z,1.00
2018-01-06T10:24:49.957Z,1.00
2018-01-06T10:27:19.641Z,1.00
2018-01-06T10:29:51.902Z,1.00
2018-01-06T10:32:19.929Z,1.00
2018-01-06T10:34:49.866Z,1.00
2018-01-06T10:37:18.301Z,1.00
2018-01-06T10:39:47.212Z,1.00
2018-01-06T10:42:16.141Z,1.00
2018-01-06T10:44:44.161Z,1.00
2018-01-06T10:47:14.134Z,1.00
2018-01-06T10:49:50.081Z,99.90
2018-01-06T10:52:25.825Z,99.90
2018-01-06T10:55:01.869Z,99.90
2018-01-06T10:57:31.793Z,99.90
2018-01-06T11:00:02.961Z,99.90
2018-01-06T11:02:32.889Z,99.90
2018-01-06T11:05:06.581Z,99.90
2018-01-06T11:07:34.637Z,99.90
2018-01-06T11:10:02.669Z,64.10
2018-01-06T11:12:31.613Z,98.40
2018-01-06T11:15:03.881Z,1.00
2018-01-06T11:17:31.897Z,1.00
2018-01-06T11:20:04.959Z,99.90
2018-01-06T11:22:33.785Z,1.00
2018-01-06T11:25:14.201Z,1.00
2018-01-06T11:27:42.229Z,1.00
2018-01-06T11:30:14.061Z,1.00
2018-01-06T11:32:42.345Z,1.00
2018-01-06T11:35:10.368Z,1.00
2018-01-06T11:37:38.489Z,1.00
2018-01-06T11:40:08.469Z,1.00
2018-01-06T11:42:39.725Z,15.70
2018-01-06T11:45:09.383Z,95.40
2018-01-06T11:47:45.097Z,99.90
2018-01-06T11:50:25.153Z,1.00
2018-01-06T11:53:03.634Z,1.00
2018-01-06T11:55:44.713Z,32.00
2018-01-06T11:58:13.005Z,1.00
2018-01-06T12:00:45.925Z,1.00
2018-01-06T12:03:19.773Z,1.00
2018-01-06T12:05:53.397Z,39.50
2018-01-06T12:08:29.929Z,1.00
2018-01-06T12:10:57.989Z,7.60
2018-01-06T12:13:25.993Z,1.00
2018-01-06T12:18:53.125Z,66.20
2018-01-06T12:21:34.808Z,1.00
2018-01-06T12:24:04.841Z,1.00
2018-01-06T12:26:33.221Z,1.00
2018-01-06T12:29:01.213Z,99.90
2018-01-06T12:31:30.073Z,1.00
2018-01-06T12:34:01.449Z,1.00
2018-01-06T12:36:33.189Z,99.90
2018-01-06T12:39:02.300Z,1.00
2018-01-06T12:41:35.101Z,1.00
2018-01-06T12:44:05.253Z,1.00
2018-01-06T12:46:38.873Z,1.00
2018-01-06T12:49:07.137Z,1.00
2018-01-06T12:51:37.105Z,4.90
2018-01-06T12:54:05.242Z,1.00
2018-01-06T12:56:34.250Z,1.00
2018-01-06T12:59:05.685Z,1.00
2018-01-06T13:01:35.765Z,1.00
2018-01-06T13:04:05.736Z,1.00
2018-01-06T13:06:34.552Z,1.00
2018-01-06T13:09:03.889Z,1.00
2018-01-06T13:11:35.992Z,1.00
2018-01-06T13:14:07.280Z,1.00
2018-01-06T13:16:40.292Z,1.00
2018-01-06T13:19:08.518Z,1.00
2018-01-06T13:21:36.561Z,1.00
2018-01-06T13:24:08.616Z,29.10
2018-01-06T13:26:36.645Z,40.10
2018-01-06T13:29:19.412Z,97.40
2018-01-06T13:31:53.836Z,53.90
2018-01-06T13:34:25.628Z,99.90
2018-01-06T13:36:54.653Z,99.90
2018-01-06T13:39:28.101Z,99.90
2018-01-06T13:41:58.401Z,99.90
2018-01-06T13:44:30.953Z,99.90
2018-01-06T13:46:58.968Z,99.90
2018-01-06T13:49:30.161Z,99.90
2018-01-06T13:52:03.576Z,99.90
2018-01-06T13:54:45.080Z,99.90
2018-01-06T13:57:13.168Z,99.90
2018-01-06T13:59:42.136Z,99.90
2018-01-06T14:02:14.641Z,99.90
2018-01-06T14:04:49.608Z,99.90
2018-01-06T14:07:20.692Z,99.90
2018-01-06T14:09:52.668Z,99.90
2018-01-06T14:12:21.622Z,99.90
2018-01-06T14:14:51.565Z,99.90
2018-01-06T14:17:24.060Z,99.90
2018-01-06T14:20:03.000Z,99.90
2018-01-06T14:22:31.064Z,99.90
2018-01-06T14:25:01.044Z,99.90
2018-01-06T14:27:30.041Z,99.90
2018-01-06T14:30:02.544Z,99.90
2018-01-06T14:32:34.272Z,99.90
2018-01-06T14:35:07.949Z,99.90
2018-01-06T14:37:35.983Z,99.90
2018-01-06T14:40:10.129Z,99.90
2018-01-06T14:42:40.128Z,99.90
2018-01-06T14:45:10.204Z,99.90
2018-01-06T14:47:46.700Z,99.90
2018-01-06T14:50:21.444Z,99.90
2018-01-06T14:52:50.908Z,1.00
2018-01-06T14:55:21.513Z,1.00
2018-01-06T14:57:51.652Z,1.00
2018-01-06T15:00:19.750Z,1.00
2018-01-06T15:02:49.524Z,99.90
2018-01-06T15:05:20.832Z,1.00
2018-01-06T15:07:48.948Z,1.00
2018-01-06T15:10:17.900Z,1.00
2018-01-06T15:12:51.543Z,1.00
2018-01-06T15:15:23.108Z,1.00
2018-01-06T15:17:51.172Z,1.00
2018-01-06T15:20:20.156Z,1.00
2018-01-06T15:22:56.064Z,1.00
2018-01-06T15:25:26.155Z,53.70
2018-01-06T15:27:54.480Z,99.90
2018-01-06T15:30:25.316Z,1.00
2018-01-06T15:32:54.272Z,1.00
2018-01-06T15:35:26.471Z,99.90
2018-01-06T15:38:01.764Z,1.00
2018-01-06T15:40:30.796Z,1.00
2018-01-06T15:42:58.824Z,1.00
2018-01-06T15:45:31.372Z,1.00
2018-01-06T15:48:01.288Z,1.00
2018-01-06T15:50:34.892Z,1.00
2018-01-06T15:53:03.889Z,1.00
2018-01-06T15:55:33.876Z,1.00
2018-01-06T15:58:07.740Z,1.00
2018-01-06T16:00:42.072Z,1.00
2018-01-06T16:03:14.448Z,1.00
2018-01-06T16:05:59.256Z,24.30
2018-01-06T16:11:39.016Z,1.00
2018-01-06T16:14:15.772Z,1.00
2018-01-06T16:16:45.712Z,52.10
2018-01-06T16:19:15.716Z,99.90
2018-01-06T16:21:51.224Z,99.90
2018-01-06T16:24:22.024Z,99.90
2018-01-06T16:26:52.032Z,99.90
2018-01-06T16:29:20.064Z,99.90
2018-01-06T16:31:49.048Z,1.00
2018-01-06T16:34:17.076Z,1.00
2018-01-06T16:36:47.033Z,1.00
2018-01-06T16:39:16.059Z,1.00
2018-01-06T16:42:01.624Z,1.00
2018-01-06T16:44:30.592Z,1.00
2018-01-06T16:47:13.537Z,1.00
2018-01-06T16:49:42.328Z,1.00
2018-01-06T16:52:14.867Z,1.00
2018-01-06T16:54:46.672Z,1.00
2018-01-06T16:57:28.188Z,22.70
2018-01-06T17:00:01.316Z,13.80
2018-01-06T17:05:31.452Z,19.10
2018-01-06T17:08:25.172Z,1.00
2018-01-06T17:16:56.640Z,1.00
2018-01-06T17:25:30.207Z,1.00
2018-01-06T17:28:00.000Z,1.00
2018-01-06T17:30:28.952Z,1.00
2018-01-06T17:33:06.669Z,1.00
2018-01-06T17:35:46.973Z,1.00
2018-01-06T17:38:21.589Z,1.00
2018-01-06T17:44:02.692Z,1.00
2018-01-06T17:49:30.036Z,1.00
2018-01-06T17:52:09.872Z,1.00
2018-01-06T17:54:51.111Z,1.00
2018-01-06T17:57:23.495Z,1.00
2018-01-06T17:59:56.615Z,1.00
2018-01-06T18:02:45.284Z,1.00
2018-01-06T18:05:15.018Z,1.00
2018-01-06T18:07:43.031Z,1.00
2018-01-06T18:10:11.835Z,99.90
2018-01-06T18:12:41.863Z,99.90
2018-01-06T18:15:11.727Z,99.90
2018-01-06T18:17:40.687Z,99.90
2018-01-06T18:20:14.387Z,99.90
2018-01-06T18:25:49.827Z,99.90
2018-01-06T18:28:17.911Z,99.90
2018-01-06T18:30:46.891Z,1.00
2018-01-06T18:33:14.979Z,1.00
2018-01-06T18:35:44.079Z,1.00
2018-01-06T18:38:20.211Z,1.00
2018-01-06T18:41:05.115Z,1.00
2018-01-06T18:43:40.911Z,1.00
2018-01-06T18:46:11.948Z,1.00
2018-01-06T18:48:41.992Z,1.00
2018-01-06T18:51:17.227Z,1.00
2018-01-06T18:53:50.759Z,1.00
2018-01-06T18:56:31.135Z,1.00
2018-01-06T18:58:59.280Z,1.00
2018-01-06T19:01:33.251Z,1.00
2018-01-06T19:04:24.867Z,1.00
2018-01-06T19:06:56.359Z,1.00
2018-01-06T19:09:28.246Z,1.00
2018-01-06T19:11:58.067Z,1.00
2018-01-06T19:14:31.595Z,1.00
2018-01-06T19:17:14.911Z,1.00
2018-01-06T19:19:44.431Z,1.00
2018-01-06T19:22:17.170Z,1.00
2018-01-06T19:24:51.051Z,1.00
2018-01-06T19:27:23.467Z,1.00
2018-01-06T19:29:53.031Z,26.70
2018-01-06T19:32:30.943Z,56.60
2018-01-06T19:35:11.935Z,99.90
2018-01-06T19:37:41.523Z,99.90
2018-01-06T19:40:15.587Z,99.90
2018-01-06T19:42:45.787Z,99.90
2018-01-06T19:45:16.191Z,99.90
2018-01-06T19:47:47.918Z,99.90
2018-01-06T19:50:28.854Z,99.90
2018-01-06T19:52:58.219Z,99.90
2018-01-06T19:55:28.363Z,99.90
2018-01-06T20:00:48.331Z,99.90
2018-01-06T20:03:23.587Z,99.90
2018-01-06T20:05:57.239Z,99.90
2018-01-06T20:08:26.244Z,99.90
2018-01-06T20:10:58.382Z,99.90
2018-01-06T20:13:28.419Z,99.90
2018-01-06T20:15:56.559Z,99.90
2018-01-06T20:18:25.531Z,99.90
2018-01-06T20:20:59.039Z,99.90
2018-01-06T20:23:29.071Z,99.90
2018-01-06T20:26:10.387Z,99.90
2018-01-06T20:28:38.443Z,99.90
2018-01-06T20:31:06.463Z,99.90
2018-01-06T20:33:35.495Z,99.90
2018-01-06T20:36:04.471Z,1.00
2018-01-06T20:38:33.447Z,1.00
2018-01-06T20:41:09.186Z,6.20
2018-01-06T20:43:38.243Z,44.00
2018-01-06T20:46:08.211Z,82.80
2018-01-06T20:48:38.267Z,66.80
2018-01-06T20:51:13.543Z,43.60
2018-01-06T20:53:45.199Z,23.20
2018-01-06T20:56:14.183Z,1.00
2018-01-06T20:58:44.122Z,1.00
2018-01-06T21:01:12.155Z,1.00
2018-01-06T21:03:40.166Z,1.00
2018-01-06T21:06:09.159Z,1.00
2018-01-06T21:08:42.883Z,1.00
2018-01-06T21:11:11.866Z,1.00
2018-01-06T21:13:40.679Z,1.00
2018-01-06T21:16:14.966Z,1.00
2018-01-06T21:18:57.542Z,1.00
2018-01-06T21:21:27.494Z,1.00
2018-01-06T21:24:00.474Z,99.90
2018-01-06T21:26:32.662Z,99.90
2018-01-06T21:29:08.946Z,99.90
2018-01-06T21:31:42.610Z,99.90
2018-01-06T21:34:11.623Z,99.90
2018-01-06T21:36:41.426Z,99.90
2018-01-06T21:39:11.418Z,99.90
2018-01-06T21:41:41.446Z,99.90
2018-01-06T21:44:10.290Z,1.00
2018-01-06T21:46:38.342Z,1.00
2018-01-06T21:49:08.298Z,1.00
2018-01-06T21:51:36.339Z,1.00
2018-01-06T21:54:08.866Z,1.00
2018-01-06T21:56:41.102Z,1.00
2018-01-06T21:59:11.150Z,1.00
2018-01-06T22:01:42.894Z,1.00
2018-01-06T22:04:14.590Z,1.00
2018-01-06T22:06:44.622Z,1.00
2018-01-06T22:09:13.554Z,1.00
2018-01-06T22:11:49.502Z,1.00
2018-01-06T22:14:19.458Z,1.00
2018-01-06T22:16:48.486Z,1.00
2018-01-06T22:19:18.446Z,1.00
2018-01-06T22:21:49.586Z,1.00
2018-01-06T22:24:18.594Z,1.00
2018-01-06T22:26:47.618Z,1.00
2018-01-06T22:29:20.197Z,1.00
2018-01-06T22:31:48.290Z,1.00
2018-01-06T22:34:16.357Z,1.00
2018-01-06T22:36:44.409Z,1.00
2018-01-06T22:39:20.586Z,1.00
2018-01-06T22:41:51.306Z,1.00
2018-01-06T22:44:20.410Z,1.00
2018-01-06T22:46:54.225Z,1.00
2018-01-06T22:49:23.330Z,1.00
2018-01-06T22:51:53.430Z,1.00
2018-01-06T22:54:26.518Z,1.00
2018-01-06T22:56:54.586Z,1.00
2018-01-06T22:59:22.658Z,1.00
2018-01-06T23:01:54.833Z,1.00
2018-01-06T23:04:23.818Z,1.00
2018-01-06T23:06:52.142Z,1.00
2018-01-06T23:09:22.329Z,97.30
2018-01-06T23:11:51.593Z,99.90
2018-01-06T23:14:26.366Z,50.80
2018-01-06T23:16:55.438Z,42.60
2018-01-06T23:19:23.526Z,2.40
2018-01-06T23:22:05.118Z,91.30
2018-01-06T23:24:33.229Z,35.80
2018-01-06T23:27:01.417Z,34.00
2018-01-06T23:29:31.393Z,28.20
2018-01-06T23:32:00.377Z,49.50
2018-01-06T23:34:28.422Z,99.90
2018-01-06T23:36:58.413Z,41.80
2018-01-06T23:39:26.641Z,64.20
2018-01-06T23:42:00.521Z,6.30
2018-01-06T23:44:30.617Z,8.90
2018-01-06T23:47:02.050Z,28.90
2018-01-06T23:49:37.158Z,1.00
2018-01-06T23:52:12.633Z,1.00
2018-01-06T23:54:40.741Z,1.00
2018-01-06T23:57:09.761Z,5.70
2018-01-06T23:59:52.361Z,14.90
